South River, Missouri
Current Conditions -  °F | °C
As of 10:35 AM on Friday 24 Oct 2014 (Local Time) from KHAE Reporting Station
Moderate Fog Moderate Fog  
Wind Chill: 55°   Ceiling: 200
Heat Index: 55°   Visibility: 0.25mi
Dew Point: 54°   Wind: 7mph
Humidity: 94%   Direction: 170°S
Pressure: 30.1"   Gusts: NA
Location:  39.7865°N, 91.559°W
Report Text: KHAE 241535Z AUTO 17006KT 1/4SM FG OVC002 13/12 A3010 RMK AO2
Loading
Personal Weather Stations






























Interactive Weather Map
Tropical Storm Tracking
New forecast layout! Learn more

10-Day Weather Forecast

Advertisements
Track Severe Weather on mobile